createdAt,value
2018-03-19T00:00:44.254Z,3.40
2018-03-19T00:01:44.297Z,3.60
2018-03-19T00:02:44.348Z,3.60
2018-03-19T00:03:44.399Z,3.80
2018-03-19T00:04:44.449Z,4.10
2018-03-19T00:05:44.500Z,3.90
2018-03-19T00:06:44.548Z,3.70
2018-03-19T00:07:44.599Z,3.00
2018-03-19T00:08:44.649Z,3.40
2018-03-19T00:09:44.700Z,3.70
2018-03-19T00:10:44.750Z,3.60
2018-03-19T00:11:44.800Z,3.60
2018-03-19T00:12:44.851Z,3.90
2018-03-19T00:13:44.902Z,3.40
2018-03-19T00:14:44.951Z,3.90
2018-03-19T00:15:45.001Z,3.90
2018-03-19T00:16:45.052Z,4.10
2018-03-19T00:17:45.101Z,3.70
2018-03-19T00:18:45.153Z,3.80
2018-03-19T00:19:45.203Z,3.40
2018-03-19T00:20:45.256Z,3.90
2018-03-19T00:21:45.453Z,3.50
2018-03-19T00:22:45.352Z,3.60
2018-03-19T00:23:45.404Z,3.70
2018-03-19T00:24:45.986Z,3.80
2018-03-19T00:25:46.138Z,3.80
2018-03-19T00:26:45.553Z,3.80
2018-03-19T00:27:45.605Z,4.20
2018-03-19T00:28:45.655Z,3.50
2018-03-19T00:29:45.706Z,4.30
2018-03-19T00:30:46.264Z,3.90
2018-03-19T00:31:46.528Z,3.00
2018-03-19T00:32:46.557Z,4.00
2018-03-19T00:33:45.922Z,3.90
2018-03-19T00:34:46.599Z,3.90
2018-03-19T00:35:46.633Z,3.70
2018-03-19T00:36:46.654Z,3.70
2018-03-19T00:37:46.111Z,3.70
2018-03-19T00:38:46.158Z,4.00
2018-03-19T00:39:46.217Z,3.90
2018-03-19T00:40:46.880Z,3.80
2018-03-19T00:41:46.310Z,4.10
2018-03-19T00:42:46.366Z,3.80
2018-03-19T00:43:46.409Z,3.60
2018-03-19T00:44:46.460Z,3.60
2018-03-19T00:45:46.512Z,3.20
2018-03-19T00:46:46.560Z,3.70
2018-03-19T00:47:46.611Z,3.50
2018-03-19T00:48:46.660Z,3.70
2018-03-19T00:49:46.712Z,3.80
2018-03-19T00:50:46.763Z,3.40
2018-03-19T00:51:46.811Z,4.50
2018-03-19T00:52:46.863Z,3.90
2018-03-19T00:53:46.913Z,3.90
2018-03-19T00:54:46.963Z,3.50
2018-03-19T00:55:47.012Z,3.30
2018-03-19T00:56:47.064Z,4.30
2018-03-19T00:57:47.117Z,3.40
2018-03-19T00:58:47.164Z,3.40
2018-03-19T00:59:47.214Z,3.60
2018-03-19T01:00:47.264Z,3.20
2018-03-19T01:01:47.314Z,3.90
2018-03-19T01:02:47.405Z,3.90
2018-03-19T01:03:47.415Z,4.20
2018-03-19T01:04:47.465Z,3.30
2018-03-19T01:05:47.515Z,4.10
2018-03-19T01:06:47.565Z,3.90
2018-03-19T01:07:47.616Z,4.50
2018-03-19T01:08:47.668Z,3.90
2018-03-19T01:09:47.717Z,3.70
2018-03-19T01:10:47.767Z,3.80
2018-03-19T01:11:47.818Z,4.10
2018-03-19T01:12:47.869Z,3.70
2018-03-19T01:13:47.917Z,4.10
2018-03-19T01:14:47.967Z,4.10
2018-03-19T01:15:48.019Z,4.30
2018-03-19T01:16:48.069Z,3.80
2018-03-19T01:17:48.120Z,3.90
2018-03-19T01:18:48.271Z,4.30
2018-03-19T01:19:48.222Z,3.70
2018-03-19T01:20:48.271Z,4.20
2018-03-19T01:21:48.324Z,4.40
2018-03-19T01:22:48.372Z,4.50
2018-03-19T01:23:48.421Z,3.70
2018-03-19T01:24:48.490Z,3.40
2018-03-19T01:25:48.523Z,3.70
2018-03-19T01:26:48.572Z,3.90
2018-03-19T01:27:48.624Z,3.90
2018-03-19T01:28:48.674Z,4.20
2018-03-19T01:29:48.726Z,4.20
2018-03-19T01:30:48.775Z,3.60
2018-03-19T01:31:48.827Z,4.00
2018-03-19T01:32:48.875Z,3.70
2018-03-19T01:33:48.927Z,4.00
2018-03-19T01:34:48.977Z,4.10
2018-03-19T01:35:49.027Z,4.20
2018-03-19T01:36:49.077Z,4.40
2018-03-19T01:37:49.129Z,3.90
2018-03-19T01:38:49.178Z,4.10
2018-03-19T01:39:49.230Z,4.20
2018-03-19T01:40:49.429Z,4.10
2018-03-19T01:41:49.330Z,3.80
2018-03-19T01:42:49.380Z,3.90
2018-03-19T01:43:49.429Z,3.80
2018-03-19T01:44:49.481Z,3.90
2018-03-19T01:45:49.530Z,3.90
2018-03-19T01:46:49.581Z,4.40
2018-03-19T01:47:49.632Z,4.40
2018-03-19T01:48:49.683Z,4.30
2018-03-19T01:49:49.734Z,4.10
2018-03-19T01:50:49.783Z,4.00
2018-03-19T01:51:49.834Z,3.70
2018-03-19T01:52:49.883Z,4.10
2018-03-19T01:53:49.938Z,4.30
2018-03-19T01:54:49.984Z,4.00
2018-03-19T01:55:50.034Z,4.20
2018-03-19T01:56:50.085Z,4.30
2018-03-19T01:57:50.137Z,3.90
2018-03-19T01:58:50.185Z,3.80
2018-03-19T01:59:50.237Z,4.20
2018-03-19T02:00:50.291Z,4.30
2018-03-19T02:01:50.336Z,4.50
2018-03-19T02:02:50.387Z,4.30
2018-03-19T02:03:50.437Z,4.10
2018-03-19T02:04:50.487Z,4.30
2018-03-19T02:05:50.538Z,3.70
2018-03-19T02:06:50.589Z,3.70
2018-03-19T02:07:50.639Z,3.80
2018-03-19T02:08:50.689Z,3.90
2018-03-19T02:09:50.741Z,4.30
2018-03-19T02:10:50.791Z,3.60
2018-03-19T02:11:50.840Z,4.10
2018-03-19T02:12:50.891Z,4.00
2018-03-19T02:13:50.942Z,4.20
2018-03-19T02:14:51.142Z,4.10
2018-03-19T02:15:51.042Z,4.40
2018-03-19T02:16:51.094Z,4.10
2018-03-19T02:17:51.144Z,3.60
2018-03-19T02:18:51.193Z,4.00
2018-03-19T02:19:51.244Z,4.10
2018-03-19T02:20:51.295Z,3.70
2018-03-19T02:21:51.345Z,3.60
2018-03-19T02:22:51.397Z,3.90
2018-03-19T02:23:51.446Z,4.10
2018-03-19T02:24:51.497Z,4.30
2018-03-19T02:25:51.696Z,3.80
2018-03-19T02:26:51.597Z,3.90
2018-03-19T02:27:51.648Z,3.70
2018-03-19T02:28:51.698Z,4.20
2018-03-19T02:29:51.750Z,3.60
2018-03-19T02:30:51.799Z,4.30
2018-03-19T02:31:51.849Z,3.50
2018-03-19T02:32:51.950Z,3.50
2018-03-19T02:33:51.949Z,3.70
2018-03-19T02:34:52.000Z,4.20
2018-03-19T02:35:52.049Z,4.10
2018-03-19T02:36:52.101Z,4.50
2018-03-19T02:37:52.152Z,3.60
2018-03-19T02:38:52.204Z,3.60
2018-03-19T02:39:52.252Z,3.80
2018-03-19T02:40:52.302Z,3.90
2018-03-19T02:41:52.353Z,4.00
2018-03-19T02:42:52.404Z,4.10
2018-03-19T02:43:52.455Z,4.00
2018-03-19T02:44:52.506Z,4.50
2018-03-19T02:45:52.556Z,3.60
2018-03-19T02:46:52.618Z,3.90
2018-03-19T02:47:52.655Z,3.90
2018-03-19T02:48:52.856Z,3.70
2018-03-19T02:49:52.757Z,4.20
2018-03-19T02:50:52.805Z,4.60
2018-03-19T02:51:52.858Z,4.00
2018-03-19T02:52:52.907Z,3.80
2018-03-19T02:53:52.956Z,3.70
2018-03-19T02:54:53.008Z,4.30
2018-03-19T02:55:53.062Z,4.30
2018-03-19T02:56:53.108Z,4.30
2018-03-19T02:57:53.163Z,4.00
2018-03-19T02:58:53.208Z,4.20
2018-03-19T02:59:53.260Z,4.30
2018-03-19T03:00:53.309Z,4.50
2018-03-19T03:01:53.359Z,4.30
2018-03-19T03:02:53.415Z,3.90
2018-03-19T03:03:53.460Z,4.10
2018-03-19T03:04:53.509Z,4.00
2018-03-19T03:05:53.561Z,4.60
2018-03-19T03:06:53.610Z,4.10
2018-03-19T03:07:53.662Z,4.10
2018-03-19T03:08:53.711Z,3.80
2018-03-19T03:09:53.762Z,4.00
2018-03-19T03:10:53.962Z,4.40
2018-03-19T03:11:53.861Z,4.40
2018-03-19T03:12:53.913Z,4.20
2018-03-19T03:13:53.964Z,3.60
2018-03-19T03:14:54.013Z,3.90
2018-03-19T03:15:54.064Z,4.10
2018-03-19T03:16:54.114Z,4.60
2018-03-19T03:17:54.164Z,4.30
2018-03-19T03:18:54.214Z,4.20
2018-03-19T03:19:54.264Z,4.90
2018-03-19T03:20:54.316Z,3.90
2018-03-19T03:21:54.366Z,3.80
2018-03-19T03:22:54.415Z,4.20
2018-03-19T03:23:54.468Z,4.40
2018-03-19T03:24:54.518Z,4.10
2018-03-19T03:25:54.566Z,4.40
2018-03-19T03:26:54.617Z,4.20
2018-03-19T03:27:54.671Z,3.60
2018-03-19T03:28:54.717Z,4.30
2018-03-19T03:29:54.769Z,3.60
2018-03-19T03:30:54.818Z,4.40
2018-03-19T03:31:54.874Z,4.10
2018-03-19T03:32:54.919Z,4.60
2018-03-19T03:33:54.971Z,4.30
2018-03-19T03:34:55.020Z,4.40
2018-03-19T03:35:55.070Z,3.90
2018-03-19T03:36:55.120Z,3.80
2018-03-19T03:37:55.178Z,4.50
2018-03-19T03:38:55.221Z,3.90
2018-03-19T03:39:55.271Z,4.20
2018-03-19T03:40:55.322Z,4.10
2018-03-19T03:41:55.373Z,4.30
2018-03-19T03:42:55.423Z,3.90
2018-03-19T03:43:55.473Z,4.20
2018-03-19T03:44:55.524Z,4.00
2018-03-19T03:45:55.824Z,4.70
2018-03-19T03:47:28.834Z,4.00
2018-03-19T03:47:55.673Z,4.20
2018-03-19T03:48:55.724Z,4.20
2018-03-19T03:49:55.774Z,4.50
2018-03-19T03:50:55.824Z,4.00
2018-03-19T03:51:55.879Z,4.00
2018-03-19T03:52:55.925Z,4.20
2018-03-19T03:53:55.976Z,4.10
2018-03-19T03:54:56.026Z,4.50
2018-03-19T03:55:56.077Z,4.10
2018-03-19T03:56:56.128Z,4.20
2018-03-19T03:57:56.181Z,3.40
2018-03-19T03:58:56.226Z,4.20
2018-03-19T03:59:56.277Z,4.10
2018-03-19T04:00:56.340Z,3.50
2018-03-19T04:01:56.378Z,4.60
2018-03-19T04:02:56.429Z,4.50
2018-03-19T04:03:56.487Z,3.90
2018-03-19T04:04:56.530Z,4.40
2018-03-19T04:05:56.581Z,4.20
2018-03-19T04:06:56.630Z,4.60
2018-03-19T04:07:56.679Z,3.50
2018-03-19T04:08:56.892Z,4.50
2018-03-19T04:09:56.781Z,4.60
2018-03-19T04:10:56.830Z,3.90
2018-03-19T04:11:56.882Z,4.00
2018-03-19T04:12:56.939Z,3.90
2018-03-19T04:13:56.983Z,4.40
2018-03-19T04:14:57.033Z,4.00
2018-03-19T04:15:57.087Z,4.00
2018-03-19T04:16:57.133Z,3.70
2018-03-19T04:17:57.182Z,4.00
2018-03-19T04:18:57.233Z,4.50
2018-03-19T04:19:57.436Z,4.00
2018-03-19T04:20:57.336Z,4.30
2018-03-19T04:21:57.384Z,3.90
2018-03-19T04:22:57.449Z,3.90
2018-03-19T04:23:57.483Z,3.70
2018-03-19T04:24:57.535Z,4.00
2018-03-19T04:25:57.586Z,4.50
2018-03-19T04:26:57.634Z,4.20
2018-03-19T04:27:57.685Z,3.90
2018-03-19T04:28:57.736Z,4.00
2018-03-19T04:29:57.785Z,4.20
2018-03-19T04:30:57.984Z,4.20
2018-03-19T04:31:57.886Z,3.90
2018-03-19T04:32:57.936Z,4.20
2018-03-19T04:33:57.986Z,3.80
2018-03-19T04:34:58.035Z,3.30
2018-03-19T04:35:58.086Z,3.90
2018-03-19T04:37:01.294Z,3.90
2018-03-19T04:37:58.206Z,4.10
2018-03-19T04:38:58.235Z,4.10
2018-03-19T04:39:58.285Z,4.30
2018-03-19T04:40:58.337Z,3.60
2018-03-19T04:41:58.386Z,3.30
2018-03-19T04:42:58.440Z,4.20
2018-03-19T04:43:58.487Z,3.90
2018-03-19T04:44:58.538Z,3.20
2018-03-19T04:45:58.587Z,3.90
2018-03-19T04:46:58.637Z,3.70
2018-03-19T04:47:58.687Z,3.70
2018-03-19T04:48:58.738Z,3.90
2018-03-19T04:49:58.788Z,4.30
2018-03-19T04:50:58.836Z,4.00
2018-03-19T04:51:58.886Z,4.20
2018-03-19T04:52:58.940Z,3.70
2018-03-19T04:53:58.989Z,4.30
2018-03-19T04:54:59.504Z,4.50
2018-03-19T04:55:59.608Z,4.30
2018-03-19T04:56:59.138Z,4.00
2018-03-19T04:57:59.188Z,4.20
2018-03-19T04:58:59.239Z,3.90
2018-03-19T04:59:59.538Z,4.60
2018-03-19T05:00:59.337Z,4.30
2018-03-19T05:01:59.389Z,4.30
2018-03-19T05:02:59.438Z,3.80
2018-03-19T05:03:59.487Z,3.90
2018-03-19T05:04:59.539Z,4.30
2018-03-19T05:05:59.590Z,4.30
2018-03-19T05:06:59.638Z,3.60
2018-03-19T05:07:59.688Z,2.80
2018-03-19T05:08:59.737Z,4.10
2018-03-19T05:09:59.787Z,4.20
2018-03-19T05:10:59.839Z,3.90
2018-03-19T05:12:00.043Z,3.30
2018-03-19T05:12:59.939Z,3.80
2018-03-19T05:13:59.989Z,3.90
2018-03-19T05:15:00.041Z,4.20
2018-03-19T05:16:00.088Z,4.00
2018-03-19T05:17:00.139Z,4.50
2018-03-19T05:18:00.188Z,3.40
2018-03-19T05:19:00.237Z,4.50
2018-03-19T05:20:00.287Z,4.30
2018-03-19T05:21:00.336Z,4.20
2018-03-19T05:22:00.388Z,4.70
2018-03-19T05:23:00.435Z,4.10
2018-03-19T05:24:00.500Z,3.80
2018-03-19T05:25:00.537Z,5.00
2018-03-19T05:26:00.597Z,4.40
2018-03-19T05:27:00.635Z,4.40
2018-03-19T05:28:00.937Z,3.80
2018-03-19T05:29:00.737Z,4.00
2018-03-19T05:30:00.787Z,4.20
2018-03-19T05:31:00.835Z,3.90
2018-03-19T05:32:00.885Z,3.80
2018-03-19T05:33:00.934Z,4.40
2018-03-19T05:34:00.985Z,4.10
2018-03-19T05:35:01.034Z,4.20
2018-03-19T05:36:01.084Z,3.40
2018-03-19T05:37:01.166Z,2.40
2018-03-19T05:38:01.185Z,3.90
2018-03-19T05:39:01.234Z,4.90
2018-03-19T05:40:01.684Z,4.00
2018-03-19T05:41:01.334Z,4.00
2018-03-19T05:42:01.386Z,3.70
2018-03-19T05:43:01.432Z,3.90
2018-03-19T05:44:01.483Z,4.20
2018-03-19T05:45:01.533Z,3.80
2018-03-19T05:46:01.583Z,4.20
2018-03-19T05:47:01.632Z,3.80
2018-03-19T05:48:01.682Z,4.50
2018-03-19T05:49:01.732Z,4.80
2018-03-19T05:50:01.782Z,4.40
2018-03-19T05:51:01.832Z,4.70
2018-03-19T05:52:01.881Z,4.50
2018-03-19T05:53:01.932Z,4.40
2018-03-19T05:54:02.012Z,4.50
2018-03-19T05:55:02.036Z,4.50
2018-03-19T05:56:02.083Z,4.80
2018-03-19T05:57:02.130Z,4.90
2018-03-19T05:58:02.180Z,4.70
2018-03-19T05:59:02.230Z,4.20
2018-03-19T06:00:02.307Z,4.80
2018-03-19T06:01:02.331Z,3.90
2018-03-19T06:02:02.382Z,5.20
2018-03-19T06:03:02.429Z,4.60
2018-03-19T06:04:02.479Z,4.80
2018-03-19T06:05:02.533Z,4.50
2018-03-19T06:06:02.579Z,4.90
2018-03-19T06:07:03.057Z,5.00
2018-03-19T06:08:02.679Z,4.10
2018-03-19T06:09:02.732Z,4.50
2018-03-19T06:10:02.778Z,3.90
2018-03-19T06:11:02.828Z,5.00
2018-03-19T06:12:02.877Z,4.60
2018-03-19T06:13:02.927Z,4.60
2018-03-19T06:14:03.048Z,4.70
2018-03-19T06:15:03.028Z,4.40
2018-03-19T06:16:03.078Z,4.80
2018-03-19T06:17:03.457Z,4.10
2018-03-19T06:18:03.178Z,3.90
2018-03-19T06:19:03.226Z,5.20
2018-03-19T06:20:03.278Z,4.50
2018-03-19T06:21:03.844Z,4.60
2018-03-19T06:22:03.377Z,5.60
2018-03-19T06:23:03.427Z,4.60
2018-03-19T06:24:03.482Z,5.30
2018-03-19T06:25:03.528Z,5.20
2018-03-19T06:26:03.579Z,5.20
2018-03-19T06:27:03.627Z,4.20
2018-03-19T06:28:03.700Z,4.80
2018-03-19T06:29:04.042Z,4.30
2018-03-19T06:30:03.778Z,4.70
2018-03-19T06:31:03.827Z,4.40
2018-03-19T06:32:03.877Z,4.70
2018-03-19T06:33:03.928Z,4.90
2018-03-19T06:34:04.010Z,4.50
2018-03-19T06:35:04.028Z,4.50
2018-03-19T06:36:04.078Z,4.00
2018-03-19T06:37:04.708Z,4.30
2018-03-19T06:38:04.179Z,4.20
2018-03-19T06:39:04.231Z,4.90
2018-03-19T06:40:04.279Z,4.90
2018-03-19T06:41:04.334Z,4.50
2018-03-19T06:42:04.381Z,4.80
2018-03-19T06:43:04.430Z,3.90
2018-03-19T06:44:04.479Z,4.80
2018-03-19T06:45:04.530Z,5.00
2018-03-19T06:46:04.580Z,4.30
2018-03-19T06:47:04.630Z,4.80
2018-03-19T06:48:04.681Z,5.00
2018-03-19T06:49:04.731Z,4.80
2018-03-19T06:50:04.782Z,4.60
2018-03-19T06:51:04.832Z,4.40
2018-03-19T06:52:04.883Z,4.50
2018-03-19T06:53:04.933Z,4.40
2018-03-19T06:54:04.983Z,4.50
2018-03-19T06:55:05.610Z,4.40
2018-03-19T06:56:05.685Z,4.20
2018-03-19T06:57:05.159Z,3.80
2018-03-19T06:58:05.185Z,4.70
2018-03-19T06:59:05.235Z,4.60
2018-03-19T07:00:05.286Z,4.70
2018-03-19T07:01:05.336Z,4.70
2018-03-19T07:02:05.387Z,3.30
2018-03-19T07:03:05.440Z,4.50
2018-03-19T07:04:05.513Z,5.00
2018-03-19T07:05:05.585Z,4.40
2018-03-19T07:06:05.588Z,3.90
2018-03-19T07:07:05.637Z,3.30
2018-03-19T07:08:05.689Z,4.80
2018-03-19T07:09:05.739Z,4.60
2018-03-19T07:10:05.790Z,4.80
2018-03-19T07:11:05.841Z,4.90
2018-03-19T07:12:05.890Z,4.80
2018-03-19T07:13:05.941Z,5.00
2018-03-19T07:14:06.037Z,4.10
2018-03-19T07:15:06.042Z,4.60
2018-03-19T07:16:09.684Z,4.10
2018-03-19T07:17:06.142Z,4.60
2018-03-19T07:18:06.194Z,4.90
2018-03-19T07:19:06.244Z,5.00
2018-03-19T07:20:06.309Z,4.20
2018-03-19T07:21:06.346Z,5.20
2018-03-19T07:22:06.395Z,4.40
2018-03-19T07:23:06.445Z,4.00
2018-03-19T07:24:06.498Z,4.60
2018-03-19T07:25:06.547Z,4.20
2018-03-19T07:26:06.600Z,4.50
2018-03-19T07:27:06.658Z,3.70
2018-03-19T07:28:06.700Z,4.30
2018-03-19T07:29:06.751Z,4.20
2018-03-19T07:30:06.805Z,5.10
2018-03-19T07:31:06.858Z,4.40
2018-03-19T07:32:06.905Z,4.70
2018-03-19T07:33:06.957Z,4.40
2018-03-19T07:34:07.007Z,5.20
2018-03-19T07:35:07.615Z,5.00
2018-03-19T07:36:07.120Z,4.40
2018-03-19T07:37:07.159Z,4.20
2018-03-19T07:38:07.211Z,4.00
2018-03-19T07:39:07.710Z,3.90
2018-03-19T07:40:07.314Z,4.80
2018-03-19T07:41:07.365Z,4.30
2018-03-19T07:42:07.417Z,4.90
2018-03-19T07:43:07.466Z,4.30
2018-03-19T07:44:07.516Z,4.30
2018-03-19T07:45:07.569Z,3.70
2018-03-19T07:46:07.621Z,4.90
2018-03-19T07:47:07.942Z,5.00
2018-03-19T07:48:07.722Z,5.10
2018-03-19T07:49:07.773Z,5.00
2018-03-19T07:50:07.829Z,5.10
2018-03-19T07:51:07.933Z,4.80
2018-03-19T07:52:07.934Z,4.90
2018-03-19T07:53:07.978Z,4.60
2018-03-19T07:54:08.030Z,5.00
2018-03-19T07:55:08.080Z,4.60
2018-03-19T07:56:08.132Z,5.20
2018-03-19T07:57:08.185Z,4.80
2018-03-19T07:58:08.660Z,5.20
2018-03-19T07:59:08.286Z,4.90
2018-03-19T08:00:08.790Z,4.80
2018-03-19T08:01:08.894Z,4.60
2018-03-19T08:02:08.443Z,4.90
2018-03-19T08:03:08.861Z,5.00
2018-03-19T08:04:08.546Z,5.30
2018-03-19T08:05:08.596Z,4.70
2018-03-19T08:06:08.650Z,5.00
2018-03-19T08:07:08.703Z,5.10
2018-03-19T08:08:08.840Z,4.90
2018-03-19T08:09:08.805Z,5.20
2018-03-19T08:10:08.900Z,4.30
2018-03-19T08:11:08.912Z,4.40
2018-03-19T08:12:08.985Z,5.50
2018-03-19T08:13:09.013Z,5.30
2018-03-19T08:14:09.721Z,4.90
2018-03-19T08:15:09.120Z,4.90
2018-03-19T08:16:09.171Z,5.00
2018-03-19T08:17:09.224Z,5.10
2018-03-19T08:18:09.275Z,5.50
2018-03-19T08:19:09.328Z,4.80
2018-03-19T08:20:09.383Z,5.10
2018-03-19T08:21:10.100Z,5.20
2018-03-19T08:22:09.486Z,5.30
2018-03-19T08:23:09.536Z,4.60
2018-03-19T08:24:09.589Z,4.60
2018-03-19T08:25:09.644Z,5.00
2018-03-19T08:26:09.695Z,4.90
2018-03-19T08:27:09.747Z,5.50
2018-03-19T08:28:09.800Z,4.60
2018-03-19T08:29:09.853Z,5.20
2018-03-19T08:30:09.913Z,5.50
2018-03-19T08:31:09.959Z,5.80
2018-03-19T08:32:10.010Z,5.10
2018-03-19T08:33:10.388Z,5.40
2018-03-19T08:34:10.116Z,5.50
2018-03-19T08:35:10.169Z,4.80
2018-03-19T08:36:10.222Z,5.60
2018-03-19T08:37:10.275Z,4.90
2018-03-19T08:38:10.328Z,4.60
2018-03-19T08:39:10.380Z,4.70
2018-03-19T08:40:10.437Z,5.20
2018-03-19T08:41:10.487Z,4.80
2018-03-19T08:42:10.540Z,5.10
2018-03-19T08:43:10.591Z,4.80
2018-03-19T08:44:10.646Z,4.70
2018-03-19T08:45:10.699Z,5.30
2018-03-19T08:46:10.751Z,5.60
2018-03-19T08:47:10.804Z,5.50
2018-03-19T08:48:10.858Z,5.10
2018-03-19T08:49:10.909Z,5.30
2018-03-19T08:50:10.963Z,5.80
2018-03-19T08:51:11.022Z,5.00
2018-03-19T08:52:11.070Z,5.80
2018-03-19T08:53:11.124Z,4.90
2018-03-19T08:54:11.176Z,5.40
2018-03-19T08:55:11.228Z,4.80
2018-03-19T08:56:11.282Z,5.80
2018-03-19T08:57:11.335Z,5.60
2018-03-19T08:58:11.700Z,5.20
2018-03-19T08:59:11.442Z,5.60
2018-03-19T09:00:11.496Z,5.10
2018-03-19T09:01:11.550Z,5.30
2018-03-19T09:02:11.612Z,5.10
2018-03-19T09:03:11.674Z,5.30
2018-03-19T09:04:11.710Z,5.50
2018-03-19T09:05:11.763Z,5.40
2018-03-19T09:06:11.818Z,5.30
2018-03-19T09:07:11.871Z,5.00
2018-03-19T09:08:11.922Z,5.20
2018-03-19T09:09:11.975Z,5.20
2018-03-19T09:10:12.029Z,5.20
2018-03-19T09:11:12.080Z,5.80
2018-03-19T09:12:12.154Z,5.40
2018-03-19T09:13:12.189Z,5.00
2018-03-19T09:14:12.244Z,5.60
2018-03-19T09:15:12.295Z,5.70
2018-03-19T09:16:12.351Z,5.30
2018-03-19T09:17:12.403Z,5.70
2018-03-19T09:18:12.456Z,5.40
2018-03-19T09:19:12.509Z,5.60
2018-03-19T09:20:12.562Z,5.50
2018-03-19T09:21:12.621Z,4.70
2018-03-19T09:22:13.294Z,5.40
2018-03-19T09:23:12.723Z,5.60
2018-03-19T09:24:12.776Z,5.00
2018-03-19T09:25:12.839Z,5.50
2018-03-19T09:26:12.885Z,5.70
2018-03-19T09:27:12.938Z,5.50
2018-03-19T09:28:12.992Z,5.00
2018-03-19T09:29:13.046Z,5.00
2018-03-19T09:30:13.099Z,5.30
2018-03-19T09:31:13.170Z,5.20
2018-03-19T09:32:13.208Z,5.60
2018-03-19T09:33:13.262Z,5.90
2018-03-19T09:34:13.315Z,5.90
2018-03-19T09:35:13.396Z,5.40
2018-03-19T09:36:13.424Z,5.30
2018-03-19T09:37:13.477Z,5.60
2018-03-19T09:38:13.533Z,5.80
2018-03-19T09:39:13.586Z,5.50
2018-03-19T09:40:13.640Z,5.60
2018-03-19T09:41:14.078Z,5.70
2018-03-19T09:42:13.819Z,5.80
2018-03-19T09:43:13.803Z,5.10
2018-03-19T09:44:13.857Z,5.30
2018-03-19T09:45:13.912Z,6.00
2018-03-19T09:46:13.966Z,6.10
2018-03-19T09:47:14.021Z,5.40
2018-03-19T09:48:14.129Z,5.40
2018-03-19T09:49:14.130Z,5.50
2018-03-19T09:50:14.184Z,5.60
2018-03-19T09:51:14.237Z,5.30
2018-03-19T09:52:14.292Z,4.40
2018-03-19T09:53:14.348Z,5.10
2018-03-19T09:54:14.405Z,5.60
2018-03-19T09:55:14.456Z,5.60
2018-03-19T09:56:14.511Z,5.60
2018-03-19T09:57:14.564Z,5.40
2018-03-19T09:58:14.621Z,5.30
2018-03-19T09:59:14.676Z,5.40
2018-03-19T10:00:14.728Z,5.50
2018-03-19T10:01:14.783Z,5.60
2018-03-19T10:02:14.839Z,6.20
2018-03-19T10:03:14.892Z,6.50
2018-03-19T10:04:14.947Z,6.10
2018-03-19T10:05:15.667Z,6.00
2018-03-19T10:06:15.057Z,5.70
2018-03-19T10:07:15.110Z,6.00
2018-03-19T10:08:15.168Z,5.70
2018-03-19T10:09:15.220Z,6.40
2018-03-19T10:10:15.281Z,5.60
2018-03-19T10:11:15.329Z,6.20
2018-03-19T10:12:15.384Z,5.50
2018-03-19T10:13:15.439Z,5.50
2018-03-19T10:14:15.495Z,6.20
2018-03-19T10:15:15.548Z,5.70
2018-03-19T10:16:15.650Z,5.30
2018-03-19T10:17:15.659Z,6.00
2018-03-19T10:18:15.711Z,4.70
2018-03-19T10:19:15.766Z,6.00
2018-03-19T10:20:15.821Z,5.60
2018-03-19T10:21:15.875Z,4.80
2018-03-19T10:22:16.599Z,5.50
2018-03-19T10:23:15.984Z,5.50
2018-03-19T10:24:16.038Z,6.00
2018-03-19T10:25:16.111Z,5.80
2018-03-19T10:26:16.818Z,5.70
2018-03-19T10:27:16.206Z,4.70
2018-03-19T10:28:16.258Z,6.50
2018-03-19T10:29:16.312Z,4.80
2018-03-19T10:30:16.364Z,6.30
2018-03-19T10:31:16.419Z,5.40
2018-03-19T10:32:16.474Z,5.80
2018-03-19T10:33:16.528Z,5.40
2018-03-19T10:34:16.615Z,6.10
2018-03-19T10:35:16.636Z,5.30
2018-03-19T10:36:16.691Z,5.50
2018-03-19T10:37:17.416Z,5.70
2018-03-19T10:38:17.443Z,6.10
2018-03-19T10:39:16.853Z,5.60
2018-03-19T10:40:16.908Z,6.10
2018-03-19T10:41:17.491Z,6.20
2018-03-19T10:42:17.583Z,5.70
2018-03-19T10:43:17.654Z,5.60
2018-03-19T10:44:17.125Z,5.60
2018-03-19T10:45:17.179Z,5.30
2018-03-19T10:46:17.234Z,6.30
2018-03-19T10:47:17.287Z,6.30
2018-03-19T10:48:17.341Z,6.20
2018-03-19T10:49:17.396Z,6.20
2018-03-19T10:50:17.451Z,5.70
2018-03-19T10:51:17.518Z,6.20
2018-03-19T10:52:17.557Z,5.70
2018-03-19T10:53:17.614Z,5.40
2018-03-19T10:54:17.668Z,5.50
2018-03-19T10:55:17.730Z,6.00
2018-03-19T10:56:17.779Z,5.70
2018-03-19T10:57:17.862Z,5.50
2018-03-19T10:58:17.887Z,5.80
2018-03-19T10:59:17.939Z,6.50
2018-03-19T11:00:17.997Z,6.10
2018-03-19T11:01:18.077Z,6.40
2018-03-19T11:02:18.610Z,6.10
2018-03-19T11:03:18.807Z,5.90
2018-03-19T11:04:18.213Z,6.20
2018-03-19T11:05:18.268Z,6.10
2018-03-19T11:06:18.346Z,6.20
2018-03-19T11:07:18.377Z,6.20
2018-03-19T11:08:18.431Z,6.50
2018-03-19T11:09:18.487Z,6.00
2018-03-19T11:10:18.542Z,5.60
2018-03-19T11:11:18.597Z,5.90
2018-03-19T11:12:18.687Z,5.50
2018-03-19T11:13:18.706Z,5.70
2018-03-19T11:14:18.765Z,5.70
2018-03-19T11:15:18.814Z,5.90
2018-03-19T11:16:18.870Z,5.60
2018-03-19T11:17:18.927Z,6.00
2018-03-19T11:18:18.987Z,6.50
2018-03-19T11:19:19.034Z,6.20
2018-03-19T11:20:19.402Z,6.40
2018-03-19T11:21:19.144Z,6.00
2018-03-19T11:22:19.199Z,5.90
2018-03-19T11:23:19.253Z,6.20
2018-03-19T11:24:19.309Z,6.10
2018-03-19T11:25:19.364Z,6.00
2018-03-19T11:26:19.422Z,6.40
2018-03-19T11:27:19.474Z,5.90
2018-03-19T11:28:19.531Z,6.40
2018-03-19T11:29:19.589Z,6.20
2018-03-19T11:30:19.644Z,5.60
2018-03-19T11:31:19.715Z,5.50
2018-03-19T11:32:19.750Z,5.70
2018-03-19T11:33:19.806Z,6.20
2018-03-19T11:34:19.863Z,5.60
2018-03-19T11:35:19.915Z,5.30
2018-03-19T11:36:19.972Z,5.50
2018-03-19T11:37:20.336Z,5.70
2018-03-19T11:38:20.160Z,5.50
2018-03-19T11:39:20.543Z,5.90
2018-03-19T11:40:20.193Z,5.20
2018-03-19T11:41:20.249Z,6.60
2018-03-19T11:42:20.305Z,6.30
2018-03-19T11:43:20.359Z,5.40
2018-03-19T11:44:20.413Z,6.50
2018-03-19T11:45:20.470Z,5.90
2018-03-19T11:46:20.528Z,5.70
2018-03-19T11:47:20.588Z,5.90
2018-03-19T11:48:20.635Z,6.00
2018-03-19T11:49:20.691Z,6.20
2018-03-19T11:50:20.747Z,5.60
2018-03-19T11:51:21.002Z,6.30
2018-03-19T11:52:20.874Z,6.40
2018-03-19T11:53:20.912Z,5.80
2018-03-19T11:54:20.967Z,6.00
2018-03-19T11:55:21.021Z,5.70
2018-03-19T11:56:21.076Z,6.40
2018-03-19T11:57:21.132Z,6.10
2018-03-19T11:58:21.187Z,6.20
2018-03-19T11:59:21.241Z,6.50
2018-03-19T12:00:21.298Z,6.70
2018-03-19T12:01:21.352Z,5.80
2018-03-19T12:02:21.409Z,6.40
2018-03-19T12:03:21.463Z,5.80
2018-03-19T12:04:21.517Z,6.20
2018-03-19T12:05:21.574Z,5.90
2018-03-19T12:06:21.629Z,6.00
2018-03-19T12:07:21.684Z,6.10
2018-03-19T12:08:21.741Z,6.40
2018-03-19T12:09:21.795Z,6.10
2018-03-19T12:10:21.852Z,6.10
2018-03-19T12:11:21.904Z,5.20
2018-03-19T12:12:21.966Z,6.70
2018-03-19T12:13:22.051Z,5.60
2018-03-19T12:14:22.471Z,6.30
2018-03-19T12:15:22.127Z,6.20
2018-03-19T12:16:22.184Z,5.80
2018-03-19T12:17:22.249Z,6.30
2018-03-19T12:18:22.294Z,6.20
2018-03-19T12:19:22.889Z,6.00
2018-03-19T12:20:22.405Z,6.10
2018-03-19T12:21:22.463Z,5.30
2018-03-19T12:22:22.529Z,6.70
2018-03-19T12:23:22.570Z,6.30
2018-03-19T12:24:22.743Z,6.40
2018-03-19T12:25:23.053Z,5.30
2018-03-19T12:26:22.737Z,6.20
2018-03-19T12:27:22.851Z,6.00
2018-03-19T12:28:22.854Z,6.00
2018-03-19T12:29:22.910Z,6.20
2018-03-19T12:30:22.959Z,6.70
2018-03-19T12:31:23.014Z,7.00
2018-03-19T12:32:23.076Z,6.20
2018-03-19T12:33:23.128Z,5.60
2018-03-19T12:34:23.192Z,7.60
2018-03-19T12:35:23.950Z,6.60
2018-03-19T12:36:23.344Z,6.00
2018-03-19T12:37:23.348Z,6.50
2018-03-19T12:38:23.404Z,6.60
2018-03-19T12:39:23.458Z,6.80
2018-03-19T12:40:23.516Z,6.00
2018-03-19T12:41:23.571Z,6.40
2018-03-19T12:42:23.630Z,6.80
2018-03-19T12:43:23.686Z,6.80
2018-03-19T12:44:23.738Z,6.30
2018-03-19T12:45:23.794Z,6.40
2018-03-19T12:46:23.851Z,6.20
2018-03-19T12:47:23.906Z,6.50
2018-03-19T12:48:23.966Z,6.00
2018-03-19T12:49:24.018Z,6.10
2018-03-19T12:50:24.075Z,6.50
2018-03-19T12:51:24.130Z,6.70
2018-03-19T12:52:24.185Z,6.60
2018-03-19T12:53:24.241Z,6.80
2018-03-19T12:54:24.301Z,6.40
2018-03-19T12:55:24.354Z,6.40
2018-03-19T12:56:24.410Z,6.70
2018-03-19T12:57:24.466Z,6.50
2018-03-19T12:58:24.525Z,6.60
2018-03-19T12:59:24.582Z,6.50
2018-03-19T13:00:24.634Z,6.50
2018-03-19T13:01:24.733Z,6.50
2018-03-19T13:02:24.747Z,6.50
2018-03-19T13:03:24.804Z,7.10
2018-03-19T13:04:24.860Z,6.50
2018-03-19T13:05:25.369Z,7.30
2018-03-19T13:06:25.723Z,6.50
2018-03-19T13:07:25.030Z,7.20
2018-03-19T13:08:25.088Z,7.00
2018-03-19T13:09:25.142Z,6.90
2018-03-19T13:10:25.200Z,6.10
2018-03-19T13:11:25.255Z,6.50
2018-03-19T13:12:25.315Z,6.30
2018-03-19T13:13:25.371Z,6.80
2018-03-19T13:14:25.427Z,6.70
2018-03-19T13:15:25.482Z,6.60
2018-03-19T13:16:25.540Z,6.90
2018-03-19T13:17:25.596Z,6.30
2018-03-19T13:18:25.653Z,6.30
2018-03-19T13:19:26.140Z,6.50